sensor_id;sensor_type;location;lat;lon;timestamp;P1;durP1;ratioP1;P2;durP2;ratioP2
7539;SDS011;3811;49.006;12.076;2022-10-17T00:00:26;5.63;;;4.50;;
7539;SDS011;3811;49.006;12.076;2022-10-17T00:02:54;9.67;;;4.40;;
7539;SDS011;3811;49.006;12.076;2022-10-17T00:05:21;5.10;;;4.60;;
7539;SDS011;3811;49.006;12.076;2022-10-17T00:07:49;6.57;;;5.13;;
7539;SDS011;3811;49.006;12.076;2022-10-17T00:10:16;6.43;;;4.00;;
7539;SDS011;3811;49.006;12.076;2022-10-17T00:12:44;4.30;;;3.90;;
7539;SDS011;3811;49.006;12.076;2022-10-17T00:15:13;6.03;;;4.80;;
7539;SDS011;3811;49.006;12.076;2022-10-17T00:17:42;5.60;;;4.43;;
7539;SDS011;3811;49.006;12.076;2022-10-17T00:20:10;7.00;;;4.57;;
7539;SDS011;3811;49.006;12.076;2022-10-17T00:22:37;8.13;;;4.10;;
7539;SDS011;3811;49.006;12.076;2022-10-17T00:25:05;5.37;;;4.87;;
7539;SDS011;3811;49.006;12.076;2022-10-17T00:27:33;7.57;;;4.37;;
7539;SDS011;3811;49.006;12.076;2022-10-17T00:30:00;6.00;;;4.10;;
7539;SDS011;3811;49.006;12.076;2022-10-17T00:32:28;5.87;;;4.57;;
7539;SDS011;3811;49.006;12.076;2022-10-17T00:34:57;6.33;;;4.43;;
7539;SDS011;3811;49.006;12.076;2022-10-17T00:37:25;5.67;;;4.57;;
7539;SDS011;3811;49.006;12.076;2022-10-17T00:39:53;7.23;;;4.90;;
7539;SDS011;3811;49.006;12.076;2022-10-17T00:42:21;7.23;;;4.20;;
7539;SDS011;3811;49.006;12.076;2022-10-17T00:45:00;5.00;;;4.47;;
7539;SDS011;3811;49.006;12.076;2022-10-17T00:47:27;6.00;;;4.40;;
7539;SDS011;3811;49.006;12.076;2022-10-17T00:49:55;5.57;;;4.63;;
7539;SDS011;3811;49.006;12.076;2022-10-17T00:52:27;5.60;;;4.90;;
7539;SDS011;3811;49.006;12.076;2022-10-17T00:54:55;10.00;;;4.87;;
7539;SDS011;3811;49.006;12.076;2022-10-17T00:57:25;4.37;;;3.97;;
7539;SDS011;3811;49.006;12.076;2022-10-17T00:59:53;5.57;;;4.13;;
7539;SDS011;3811;49.006;12.076;2022-10-17T01:02:23;4.20;;;3.87;;
7539;SDS011;3811;49.006;12.076;2022-10-17T01:04:50;5.80;;;4.30;;
7539;SDS011;3811;49.006;12.076;2022-10-17T01:07:20;5.33;;;3.80;;
7539;SDS011;3811;49.006;12.076;2022-10-17T01:09:49;5.43;;;4.43;;
7539;SDS011;3811;49.006;12.076;2022-10-17T01:12:18;4.43;;;4.03;;
7539;SDS011;3811;49.006;12.076;2022-10-17T01:14:49;4.27;;;3.83;;
7539;SDS011;3811;49.006;12.076;2022-10-17T01:17:19;5.33;;;4.37;;
7539;SDS011;3811;49.006;12.076;2022-10-17T01:19:57;8.20;;;4.17;;
7539;SDS011;3811;49.006;12.076;2022-10-17T01:22:25;7.00;;;4.30;;
7539;SDS011;3811;49.006;12.076;2022-10-17T01:25:02;6.73;;;4.37;;
7539;SDS011;3811;49.006;12.076;2022-10-17T01:27:38;7.13;;;4.47;;
7539;SDS011;3811;49.006;12.076;2022-10-17T01:33:01;4.60;;;4.17;;
7539;SDS011;3811;49.006;12.076;2022-10-17T01:35:35;4.70;;;4.20;;
7539;SDS011;3811;49.006;12.076;2022-10-17T01:38:08;6.50;;;4.63;;
7539;SDS011;3811;49.006;12.076;2022-10-17T01:40:38;6.03;;;4.10;;
7539;SDS011;3811;49.006;12.076;2022-10-17T01:43:11;7.10;;;4.10;;
7539;SDS011;3811;49.006;12.076;2022-10-17T01:45:42;5.53;;;4.70;;
7539;SDS011;3811;49.006;12.076;2022-10-17T01:48:15;5.93;;;4.00;;
7539;SDS011;3811;49.006;12.076;2022-10-17T01:50:45;5.77;;;4.70;;
7539;SDS011;3811;49.006;12.076;2022-10-17T01:53:15;4.67;;;4.17;;
7539;SDS011;3811;49.006;12.076;2022-10-17T01:55:45;4.57;;;4.17;;
7539;SDS011;3811;49.006;12.076;2022-10-17T01:58:17;7.03;;;4.90;;
7539;SDS011;3811;49.006;12.076;2022-10-17T02:00:47;5.00;;;4.53;;
7539;SDS011;3811;49.006;12.076;2022-10-17T02:03:17;6.30;;;4.50;;
7539;SDS011;3811;49.006;12.076;2022-10-17T02:05:45;7.07;;;4.17;;
7539;SDS011;3811;49.006;12.076;2022-10-17T02:08:13;7.03;;;4.33;;
7539;SDS011;3811;49.006;12.076;2022-10-17T02:10:41;8.33;;;4.63;;
7539;SDS011;3811;49.006;12.076;2022-10-17T02:13:14;6.87;;;4.90;;
7539;SDS011;3811;49.006;12.076;2022-10-17T02:15:49;5.13;;;4.63;;
7539;SDS011;3811;49.006;12.076;2022-10-17T02:18:27;7.17;;;3.83;;
7539;SDS011;3811;49.006;12.076;2022-10-17T02:20:58;5.10;;;3.97;;
7539;SDS011;3811;49.006;12.076;2022-10-17T02:23:30;5.27;;;4.13;;
7539;SDS011;3811;49.006;12.076;2022-10-17T02:26:05;6.90;;;4.37;;
7539;SDS011;3811;49.006;12.076;2022-10-17T02:28:37;4.80;;;4.40;;
7539;SDS011;3811;49.006;12.076;2022-10-17T02:31:06;6.47;;;4.80;;
7539;SDS011;3811;49.006;12.076;2022-10-17T02:33:40;5.20;;;4.17;;
7539;SDS011;3811;49.006;12.076;2022-10-17T02:36:11;7.47;;;4.77;;
7539;SDS011;3811;49.006;12.076;2022-10-17T02:38:39;4.63;;;4.20;;
7539;SDS011;3811;49.006;12.076;2022-10-17T02:41:10;5.10;;;3.80;;
7539;SDS011;3811;49.006;12.076;2022-10-17T02:43:41;7.90;;;4.47;;
7539;SDS011;3811;49.006;12.076;2022-10-17T02:46:09;5.23;;;4.70;;
7539;SDS011;3811;49.006;12.076;2022-10-17T02:48:39;9.13;;;4.50;;
7539;SDS011;3811;49.006;12.076;2022-10-17T02:51:11;6.80;;;4.73;;
7539;SDS011;3811;49.006;12.076;2022-10-17T02:53:48;5.30;;;4.40;;
7539;SDS011;3811;49.006;12.076;2022-10-17T02:56:19;5.20;;;4.43;;
7539;SDS011;3811;49.006;12.076;2022-10-17T02:58:47;6.30;;;4.47;;
7539;SDS011;3811;49.006;12.076;2022-10-17T03:01:19;5.33;;;4.40;;
7539;SDS011;3811;49.006;12.076;2022-10-17T03:03:49;5.00;;;4.50;;
7539;SDS011;3811;49.006;12.076;2022-10-17T03:06:16;5.07;;;4.57;;
7539;SDS011;3811;49.006;12.076;2022-10-17T03:08:44;7.57;;;4.73;;
7539;SDS011;3811;49.006;12.076;2022-10-17T03:11:11;5.33;;;4.83;;
7539;SDS011;3811;49.006;12.076;2022-10-17T03:13:39;5.73;;;4.10;;
7539;SDS011;3811;49.006;12.076;2022-10-17T03:16:08;5.53;;;4.80;;
7539;SDS011;3811;49.006;12.076;2022-10-17T03:18:36;5.97;;;5.00;;
7539;SDS011;3811;49.006;12.076;2022-10-17T03:21:05;9.77;;;4.97;;
7539;SDS011;3811;49.006;12.076;2022-10-17T03:23:32;6.20;;;5.03;;
7539;SDS011;3811;49.006;12.076;2022-10-17T03:26:02;6.00;;;4.63;;
7539;SDS011;3811;49.006;12.076;2022-10-17T03:28:30;5.40;;;4.67;;
7539;SDS011;3811;49.006;12.076;2022-10-17T03:30:57;5.17;;;4.50;;
7539;SDS011;3811;49.006;12.076;2022-10-17T03:33:25;5.77;;;3.97;;
7539;SDS011;3811;49.006;12.076;2022-10-17T03:35:53;5.23;;;4.30;;
7539;SDS011;3811;49.006;12.076;2022-10-17T03:38:21;6.53;;;4.57;;
7539;SDS011;3811;49.006;12.076;2022-10-17T03:40:53;6.97;;;4.37;;
7539;SDS011;3811;49.006;12.076;2022-10-17T03:43:21;6.53;;;4.63;;
7539;SDS011;3811;49.006;12.076;2022-10-17T03:45:48;5.03;;;4.17;;
7539;SDS011;3811;49.006;12.076;2022-10-17T03:48:16;10.87;;;5.13;;
7539;SDS011;3811;49.006;12.076;2022-10-17T03:50:43;6.73;;;4.50;;
7539;SDS011;3811;49.006;12.076;2022-10-17T03:53:11;5.20;;;4.70;;
7539;SDS011;3811;49.006;12.076;2022-10-17T03:55:42;6.63;;;5.00;;
7539;SDS011;3811;49.006;12.076;2022-10-17T03:58:09;8.00;;;4.40;;
7539;SDS011;3811;49.006;12.076;2022-10-17T04:00:37;7.63;;;5.20;;
7539;SDS011;3811;49.006;12.076;2022-10-17T04:03:04;7.17;;;5.27;;
7539;SDS011;3811;49.006;12.076;2022-10-17T04:05:31;9.50;;;5.37;;
7539;SDS011;3811;49.006;12.076;2022-10-17T04:07:58;8.00;;;4.87;;
7539;SDS011;3811;49.006;12.076;2022-10-17T04:10:47;7.30;;;5.10;;
7539;SDS011;3811;49.006;12.076;2022-10-17T04:13:14;7.40;;;5.13;;
7539;SDS011;3811;49.006;12.076;2022-10-17T04:15:41;6.97;;;4.77;;
7539;SDS011;3811;49.006;12.076;2022-10-17T04:18:10;8.37;;;5.47;;
7539;SDS011;3811;49.006;12.076;2022-10-17T04:20:37;7.70;;;4.93;;
7539;SDS011;3811;49.006;12.076;2022-10-17T04:23:06;7.70;;;5.43;;
7539;SDS011;3811;49.006;12.076;2022-10-17T04:25:33;6.07;;;5.50;;
7539;SDS011;3811;49.006;12.076;2022-10-17T04:28:02;6.03;;;4.97;;
7539;SDS011;3811;49.006;12.076;2022-10-17T04:30:30;5.83;;;5.17;;
7539;SDS011;3811;49.006;12.076;2022-10-17T04:32:58;8.50;;;5.97;;
7539;SDS011;3811;49.006;12.076;2022-10-17T04:35:27;7.93;;;5.53;;
7539;SDS011;3811;49.006;12.076;2022-10-17T04:38:01;7.17;;;5.77;;
7539;SDS011;3811;49.006;12.076;2022-10-17T04:43:03;14.23;;;7.60;;
7539;SDS011;3811;49.006;12.076;2022-10-17T04:45:34;13.93;;;7.47;;
7539;SDS011;3811;49.006;12.076;2022-10-17T04:48:04;12.40;;;7.20;;
7539;SDS011;3811;49.006;12.076;2022-10-17T04:50:32;10.83;;;7.23;;
7539;SDS011;3811;49.006;12.076;2022-10-17T04:53:24;13.03;;;8.07;;
7539;SDS011;3811;49.006;12.076;2022-10-17T04:55:53;10.80;;;7.50;;
7539;SDS011;3811;49.006;12.076;2022-10-17T04:58:22;14.03;;;7.60;;
7539;SDS011;3811;49.006;12.076;2022-10-17T05:00:49;10.90;;;7.83;;
7539;SDS011;3811;49.006;12.076;2022-10-17T05:03:21;10.53;;;7.17;;
7539;SDS011;3811;49.006;12.076;2022-10-17T05:05:48;9.07;;;6.67;;
7539;SDS011;3811;49.006;12.076;2022-10-17T05:08:16;12.63;;;7.33;;
7539;SDS011;3811;49.006;12.076;2022-10-17T05:10:44;14.93;;;7.00;;
7539;SDS011;3811;49.006;12.076;2022-10-17T05:13:16;11.03;;;6.93;;
7539;SDS011;3811;49.006;12.076;2022-10-17T05:15:44;10.83;;;6.93;;
7539;SDS011;3811;49.006;12.076;2022-10-17T05:18:11;10.60;;;6.13;;
7539;SDS011;3811;49.006;12.076;2022-10-17T05:20:41;9.10;;;6.67;;
7539;SDS011;3811;49.006;12.076;2022-10-17T05:23:08;11.37;;;7.10;;
7539;SDS011;3811;49.006;12.076;2022-10-17T05:25:39;10.07;;;7.07;;
7539;SDS011;3811;49.006;12.076;2022-10-17T05:28:07;8.47;;;6.20;;
7539;SDS011;3811;49.006;12.076;2022-10-17T05:30:35;13.87;;;7.00;;
7539;SDS011;3811;49.006;12.076;2022-10-17T05:33:06;11.53;;;6.63;;
7539;SDS011;3811;49.006;12.076;2022-10-17T05:35:34;16.00;;;7.43;;
7539;SDS011;3811;49.006;12.076;2022-10-17T05:38:01;15.33;;;7.63;;
7539;SDS011;3811;49.006;12.076;2022-10-17T05:40:31;16.37;;;8.60;;
7539;SDS011;3811;49.006;12.076;2022-10-17T05:42:58;25.00;;;8.50;;
7539;SDS011;3811;49.006;12.076;2022-10-17T05:45:25;17.70;;;9.20;;
7539;SDS011;3811;49.006;12.076;2022-10-17T05:47:52;15.83;;;9.40;;
7539;SDS011;3811;49.006;12.076;2022-10-17T05:50:21;13.13;;;9.00;;
7539;SDS011;3811;49.006;12.076;2022-10-17T05:53:00;18.60;;;10.57;;
7539;SDS011;3811;49.006;12.076;2022-10-17T05:55:28;15.63;;;9.60;;
7539;SDS011;3811;49.006;12.076;2022-10-17T05:57:56;16.20;;;10.43;;
7539;SDS011;3811;49.006;12.076;2022-10-17T06:00:27;24.30;;;11.43;;
7539;SDS011;3811;49.006;12.076;2022-10-17T06:02:56;17.63;;;9.63;;
7539;SDS011;3811;49.006;12.076;2022-10-17T06:05:25;19.67;;;9.40;;
7539;SDS011;3811;49.006;12.076;2022-10-17T06:07:55;21.77;;;10.90;;
7539;SDS011;3811;49.006;12.076;2022-10-17T06:10:22;25.80;;;11.40;;
7539;SDS011;3811;49.006;12.076;2022-10-17T06:12:49;17.23;;;10.17;;
7539;SDS011;3811;49.006;12.076;2022-10-17T06:15:17;13.93;;;9.90;;
7539;SDS011;3811;49.006;12.076;2022-10-17T06:17:49;17.13;;;9.70;;
7539;SDS011;3811;49.006;12.076;2022-10-17T06:20:16;18.20;;;10.20;;
7539;SDS011;3811;49.006;12.076;2022-10-17T06:22:45;17.50;;;9.77;;
7539;SDS011;3811;49.006;12.076;2022-10-17T06:25:20;14.43;;;8.67;;
7539;SDS011;3811;49.006;12.076;2022-10-17T06:27:47;17.83;;;9.73;;
7539;SDS011;3811;49.006;12.076;2022-10-17T06:30:14;16.80;;;8.70;;
7539;SDS011;3811;49.006;12.076;2022-10-17T06:32:43;24.07;;;8.80;;
7539;SDS011;3811;49.006;12.076;2022-10-17T06:35:10;12.23;;;6.93;;
7539;SDS011;3811;49.006;12.076;2022-10-17T06:37:39;8.93;;;6.90;;
7539;SDS011;3811;49.006;12.076;2022-10-17T06:40:09;9.87;;;6.73;;
7539;SDS011;3811;49.006;12.076;2022-10-17T06:42:39;8.10;;;6.67;;
7539;SDS011;3811;49.006;12.076;2022-10-17T06:45:22;11.60;;;6.20;;
7539;SDS011;3811;49.006;12.076;2022-10-17T06:48:25;12.03;;;6.47;;
7539;SDS011;3811;49.006;12.076;2022-10-17T06:51:11;21.50;;;6.90;;
7539;SDS011;3811;49.006;12.076;2022-10-17T06:53:46;10.43;;;6.33;;
7539;SDS011;3811;49.006;12.076;2022-10-17T06:56:37;8.83;;;5.83;;
7539;SDS011;3811;49.006;12.076;2022-10-17T06:59:29;7.93;;;6.20;;
7539;SDS011;3811;49.006;12.076;2022-10-17T07:02:18;11.67;;;6.43;;
7539;SDS011;3811;49.006;12.076;2022-10-17T07:04:47;7.53;;;5.83;;
7539;SDS011;3811;49.006;12.076;2022-10-17T07:07:15;18.43;;;6.37;;
7539;SDS011;3811;49.006;12.076;2022-10-17T07:09:42;9.30;;;5.87;;
7539;SDS011;3811;49.006;12.076;2022-10-17T07:12:11;9.00;;;6.50;;
7539;SDS011;3811;49.006;12.076;2022-10-17T07:14:54;7.13;;;6.17;;
7539;SDS011;3811;49.006;12.076;2022-10-17T07:17:25;6.80;;;5.63;;
7539;SDS011;3811;49.006;12.076;2022-10-17T07:19:53;5.63;;;5.13;;
7539;SDS011;3811;49.006;12.076;2022-10-17T07:22:20;7.40;;;5.43;;
7539;SDS011;3811;49.006;12.076;2022-10-17T07:24:50;6.30;;;5.23;;
7539;SDS011;3811;49.006;12.076;2022-10-17T07:27:25;6.40;;;5.63;;
7539;SDS011;3811;49.006;12.076;2022-10-17T07:29:59;5.27;;;4.77;;
7539;SDS011;3811;49.006;12.076;2022-10-17T07:32:33;7.03;;;5.77;;
7539;SDS011;3811;49.006;12.076;2022-10-17T07:35:01;7.40;;;6.70;;
7539;SDS011;3811;49.006;12.076;2022-10-17T07:37:28;6.50;;;5.90;;
7539;SDS011;3811;49.006;12.076;2022-10-17T07:39:57;8.07;;;7.27;;
7539;SDS011;3811;49.006;12.076;2022-10-17T07:42:26;10.17;;;7.03;;
7539;SDS011;3811;49.006;12.076;2022-10-17T07:44:53;7.43;;;6.17;;
7539;SDS011;3811;49.006;12.076;2022-10-17T07:47:22;9.70;;;6.43;;
7539;SDS011;3811;49.006;12.076;2022-10-17T07:49:50;6.73;;;5.87;;
7539;SDS011;3811;49.006;12.076;2022-10-17T07:52:17;7.40;;;5.53;;
7539;SDS011;3811;49.006;12.076;2022-10-17T07:54:44;6.87;;;6.17;;
7539;SDS011;3811;49.006;12.076;2022-10-17T07:57:11;10.27;;;7.40;;
7539;SDS011;3811;49.006;12.076;2022-10-17T07:59:40;10.67;;;8.40;;
7539;SDS011;3811;49.006;12.076;2022-10-17T08:02:08;13.13;;;9.03;;
7539;SDS011;3811;49.006;12.076;2022-10-17T08:04:44;17.30;;;9.57;;
7539;SDS011;3811;49.006;12.076;2022-10-17T08:07:11;11.30;;;9.17;;
7539;SDS011;3811;49.006;12.076;2022-10-17T08:09:40;18.53;;;11.77;;
7539;SDS011;3811;49.006;12.076;2022-10-17T08:12:07;21.43;;;12.03;;
7539;SDS011;3811;49.006;12.076;2022-10-17T08:14:34;26.67;;;16.80;;
7539;SDS011;3811;49.006;12.076;2022-10-17T08:17:03;25.73;;;15.83;;
7539;SDS011;3811;49.006;12.076;2022-10-17T08:19:30;22.93;;;14.77;;
7539;SDS011;3811;49.006;12.076;2022-10-17T08:21:57;21.37;;;15.03;;
7539;SDS011;3811;49.006;12.076;2022-10-17T08:24:26;28.53;;;17.10;;
7539;SDS011;3811;49.006;12.076;2022-10-17T08:26:53;24.57;;;15.87;;
7539;SDS011;3811;49.006;12.076;2022-10-17T08:29:22;23.73;;;16.40;;
7539;SDS011;3811;49.006;12.076;2022-10-17T08:31:49;24.13;;;16.87;;
7539;SDS011;3811;49.006;12.076;2022-10-17T08:34:18;28.07;;;17.83;;
7539;SDS011;3811;49.006;12.076;2022-10-17T08:36:45;26.83;;;17.33;;
7539;SDS011;3811;49.006;12.076;2022-10-17T08:39:12;24.17;;;16.80;;
7539;SDS011;3811;49.006;12.076;2022-10-17T08:41:45;29.10;;;17.77;;
7539;SDS011;3811;49.006;12.076;2022-10-17T08:44:24;24.23;;;16.23;;
7539;SDS011;3811;49.006;12.076;2022-10-17T08:47:01;23.70;;;17.73;;
7539;SDS011;3811;49.006;12.076;2022-10-17T08:49:34;20.07;;;16.30;;
7539;SDS011;3811;49.006;12.076;2022-10-17T08:52:06;25.27;;;16.50;;
7539;SDS011;3811;49.006;12.076;2022-10-17T08:54:41;18.87;;;15.93;;
7539;SDS011;3811;49.006;12.076;2022-10-17T08:57:11;20.97;;;16.67;;
7539;SDS011;3811;49.006;12.076;2022-10-17T08:59:39;20.17;;;15.70;;
7539;SDS011;3811;49.006;12.076;2022-10-17T09:02:13;20.00;;;16.33;;
7539;SDS011;3811;49.006;12.076;2022-10-17T09:04:53;19.37;;;15.40;;
7539;SDS011;3811;49.006;12.076;2022-10-17T09:07:31;19.23;;;15.37;;
7539;SDS011;3811;49.006;12.076;2022-10-17T09:10:03;18.80;;;15.20;;
7539;SDS011;3811;49.006;12.076;2022-10-17T09:12:41;18.67;;;14.00;;
7539;SDS011;3811;49.006;12.076;2022-10-17T09:18:06;18.63;;;15.20;;
7539;SDS011;3811;49.006;12.076;2022-10-17T09:20:39;21.03;;;16.30;;
7539;SDS011;3811;49.006;12.076;2022-10-17T09:23:11;22.53;;;17.03;;
7539;SDS011;3811;49.006;12.076;2022-10-17T09:25:43;20.27;;;16.83;;
7539;SDS011;3811;49.006;12.076;2022-10-17T09:28:13;17.10;;;15.17;;
7539;SDS011;3811;49.006;12.076;2022-10-17T09:30:43;22.27;;;15.13;;
7539;SDS011;3811;49.006;12.076;2022-10-17T09:33:13;23.00;;;16.23;;
7539;SDS011;3811;49.006;12.076;2022-10-17T09:35:42;20.67;;;15.90;;
7539;SDS011;3811;49.006;12.076;2022-10-17T09:38:12;18.10;;;15.60;;
7539;SDS011;3811;49.006;12.076;2022-10-17T09:40:42;20.10;;;15.17;;
7539;SDS011;3811;49.006;12.076;2022-10-17T09:43:10;16.80;;;15.00;;
7539;SDS011;3811;49.006;12.076;2022-10-17T09:45:42;17.63;;;15.70;;
7539;SDS011;3811;49.006;12.076;2022-10-17T09:48:20;17.80;;;15.93;;
7539;SDS011;3811;49.006;12.076;2022-10-17T09:50:54;17.67;;;15.97;;
7539;SDS011;3811;49.006;12.076;2022-10-17T09:53:22;18.63;;;16.63;;
7539;SDS011;3811;49.006;12.076;2022-10-17T09:55:53;19.30;;;17.30;;
7539;SDS011;3811;49.006;12.076;2022-10-17T09:58:23;17.47;;;15.43;;
7539;SDS011;3811;49.006;12.076;2022-10-17T10:01:13;16.53;;;14.83;;
7539;SDS011;3811;49.006;12.076;2022-10-17T10:03:45;16.03;;;14.43;;
7539;SDS011;3811;49.006;12.076;2022-10-17T10:06:15;17.00;;;15.20;;
7539;SDS011;3811;49.006;12.076;2022-10-17T10:08:47;16.43;;;14.60;;
7539;SDS011;3811;49.006;12.076;2022-10-17T10:11:17;17.37;;;15.57;;
7539;SDS011;3811;49.006;12.076;2022-10-17T10:13:47;16.80;;;15.03;;
7539;SDS011;3811;49.006;12.076;2022-10-17T10:16:17;17.67;;;15.03;;
7539;SDS011;3811;49.006;12.076;2022-10-17T10:18:46;17.50;;;15.70;;
7539;SDS011;3811;49.006;12.076;2022-10-17T10:21:16;17.57;;;15.43;;
7539;SDS011;3811;49.006;12.076;2022-10-17T10:23:45;17.60;;;15.67;;
7539;SDS011;3811;49.006;12.076;2022-10-17T10:26:29;16.80;;;14.80;;
7539;SDS011;3811;49.006;12.076;2022-10-17T10:29:02;18.87;;;14.20;;
7539;SDS011;3811;49.006;12.076;2022-10-17T10:31:32;17.53;;;14.57;;
7539;SDS011;3811;49.006;12.076;2022-10-17T10:34:02;15.93;;;14.33;;
7539;SDS011;3811;49.006;12.076;2022-10-17T10:36:47;18.07;;;14.17;;
7539;SDS011;3811;49.006;12.076;2022-10-17T10:39:26;18.43;;;13.87;;
7539;SDS011;3811;49.006;12.076;2022-10-17T10:42:00;15.13;;;13.40;;
7539;SDS011;3811;49.006;12.076;2022-10-17T10:44:29;13.97;;;12.50;;
7539;SDS011;3811;49.006;12.076;2022-10-17T10:47:04;13.27;;;11.87;;
7539;SDS011;3811;49.006;12.076;2022-10-17T10:49:40;13.10;;;11.73;;
7539;SDS011;3811;49.006;12.076;2022-10-17T10:52:09;12.83;;;11.33;;
7539;SDS011;3811;49.006;12.076;2022-10-17T10:54:42;13.00;;;11.23;;
7539;SDS011;3811;49.006;12.076;2022-10-17T10:57:16;12.67;;;11.37;;
7539;SDS011;3811;49.006;12.076;2022-10-17T10:59:51;15.20;;;12.10;;
7539;SDS011;3811;49.006;12.076;2022-10-17T11:02:23;12.98;;;11.48;;
7539;SDS011;3811;49.006;12.076;2022-10-17T11:04:57;13.18;;;11.55;;
7539;SDS011;3811;49.006;12.076;2022-10-17T11:07:30;12.32;;;11.02;;
7539;SDS011;3811;49.006;12.076;2022-10-17T11:10:04;12.68;;;11.27;;
7539;SDS011;3811;49.006;12.076;2022-10-17T11:12:38;14.30;;;11.57;;
7539;SDS011;3811;49.006;12.076;2022-10-17T11:15:13;12.80;;;11.45;;
7539;SDS011;3811;49.006;12.076;2022-10-17T11:17:50;11.10;;;10.07;;
7539;SDS011;3811;49.006;12.076;2022-10-17T11:20:26;11.60;;;10.43;;
7539;SDS011;3811;49.006;12.076;2022-10-17T11:23:03;13.25;;;10.73;;
7539;SDS011;3811;49.006;12.076;2022-10-17T11:25:44;10.88;;;9.88;;
7539;SDS011;3811;49.006;12.076;2022-10-17T11:28:21;10.95;;;9.63;;
7539;SDS011;3811;49.006;12.076;2022-10-17T11:30:51;10.45;;;9.25;;
7539;SDS011;3811;49.006;12.076;2022-10-17T11:33:24;11.23;;;10.05;;
7539;SDS011;3811;49.006;12.076;2022-10-17T11:35:55;10.95;;;9.95;;
7539;SDS011;3811;49.006;12.076;2022-10-17T11:38:31;10.63;;;9.52;;
7539;SDS011;3811;49.006;12.076;2022-10-17T11:41:03;12.85;;;9.60;;
7539;SDS011;3811;49.006;12.076;2022-10-17T11:43:34;11.50;;;10.30;;
7539;SDS011;3811;49.006;12.076;2022-10-17T11:46:09;12.13;;;9.60;;
7539;SDS011;3811;49.006;12.076;2022-10-17T11:48:41;11.65;;;10.48;;
7539;SDS011;3811;49.006;12.076;2022-10-17T11:51:14;11.23;;;9.80;;
7539;SDS011;3811;49.006;12.076;2022-10-17T11:53:45;11.70;;;9.80;;
7539;SDS011;3811;49.006;12.076;2022-10-17T11:56:16;12.15;;;9.75;;
7539;SDS011;3811;49.006;12.076;2022-10-17T11:58:51;10.98;;;9.75;;
7539;SDS011;3811;49.006;12.076;2022-10-17T12:01:30;11.00;;;9.90;;
7539;SDS011;3811;49.006;12.076;2022-10-17T12:04:06;10.07;;;9.00;;
7539;SDS011;3811;49.006;12.076;2022-10-17T12:06:50;9.73;;;8.83;;
7539;SDS011;3811;49.006;12.076;2022-10-17T12:09:29;11.87;;;9.53;;
7539;SDS011;3811;49.006;12.076;2022-10-17T12:12:05;10.73;;;9.00;;
7539;SDS011;3811;49.006;12.076;2022-10-17T12:14:33;11.53;;;8.80;;
7539;SDS011;3811;49.006;12.076;2022-10-17T12:17:21;9.10;;;8.17;;
7539;SDS011;3811;49.006;12.076;2022-10-17T12:23:05;9.10;;;8.20;;
7539;SDS011;3811;49.006;12.076;2022-10-17T12:25:50;9.87;;;8.90;;
7539;SDS011;3811;49.006;12.076;2022-10-17T12:28:23;10.07;;;8.43;;
7539;SDS011;3811;49.006;12.076;2022-10-17T12:30:53;8.67;;;7.90;;
7539;SDS011;3811;49.006;12.076;2022-10-17T12:33:25;9.83;;;8.87;;
7539;SDS011;3811;49.006;12.076;2022-10-17T12:42:32;11.40;;;9.20;;
7539;SDS011;3811;49.006;12.076;2022-10-17T12:48:12;10.00;;;9.00;;
7539;SDS011;3811;49.006;12.076;2022-10-17T12:51:00;10.40;;;9.10;;
7539;SDS011;3811;49.006;12.076;2022-10-17T12:53:31;9.97;;;8.17;;
7539;SDS011;3811;49.006;12.076;2022-10-17T12:56:06;10.30;;;9.30;;
7539;SDS011;3811;49.006;12.076;2022-10-17T12:58:35;10.07;;;9.07;;
7539;SDS011;3811;49.006;12.076;2022-10-17T13:01:02;10.83;;;9.17;;
7539;SDS011;3811;49.006;12.076;2022-10-17T13:03:33;9.37;;;8.47;;
7539;SDS011;3811;49.006;12.076;2022-10-17T13:06:12;9.73;;;8.60;;
7539;SDS011;3811;49.006;12.076;2022-10-17T13:08:46;13.43;;;9.63;;
7539;SDS011;3811;49.006;12.076;2022-10-17T13:11:20;14.87;;;9.43;;
7539;SDS011;3811;49.006;12.076;2022-10-17T13:13:51;10.10;;;9.00;;
7539;SDS011;3811;49.006;12.076;2022-10-17T13:16:28;12.20;;;9.63;;
7539;SDS011;3811;49.006;12.076;2022-10-17T13:18:57;12.70;;;8.47;;
7539;SDS011;3811;49.006;12.076;2022-10-17T13:21:24;12.40;;;9.57;;
7539;SDS011;3811;49.006;12.076;2022-10-17T13:23:52;11.73;;;8.90;;
7539;SDS011;3811;49.006;12.076;2022-10-17T13:26:20;12.40;;;9.60;;
7539;SDS011;3811;49.006;12.076;2022-10-17T13:29:01;9.93;;;8.90;;
7539;SDS011;3811;49.006;12.076;2022-10-17T13:31:29;10.50;;;9.40;;
7539;SDS011;3811;49.006;12.076;2022-10-17T13:33:56;12.27;;;8.87;;
7539;SDS011;3811;49.006;12.076;2022-10-17T13:36:25;11.53;;;9.33;;
7539;SDS011;3811;49.006;12.076;2022-10-17T13:38:53;9.80;;;8.73;;
7539;SDS011;3811;49.006;12.076;2022-10-17T13:41:22;10.10;;;9.10;;
7539;SDS011;3811;49.006;12.076;2022-10-17T13:43:52;10.67;;;8.77;;
7539;SDS011;3811;49.006;12.076;2022-10-17T13:46:25;10.57;;;8.50;;
7539;SDS011;3811;49.006;12.076;2022-10-17T13:48:54;8.23;;;7.43;;
7539;SDS011;3811;49.006;12.076;2022-10-17T13:51:22;10.47;;;8.13;;
7539;SDS011;3811;49.006;12.076;2022-10-17T13:53:50;9.00;;;8.10;;
7539;SDS011;3811;49.006;12.076;2022-10-17T13:56:17;8.37;;;7.53;;
7539;SDS011;3811;49.006;12.076;2022-10-17T13:58:49;10.00;;;8.97;;
7539;SDS011;3811;49.006;12.076;2022-10-17T14:01:17;12.53;;;8.80;;
7539;SDS011;3811;49.006;12.076;2022-10-17T14:03:47;9.83;;;8.83;;
7539;SDS011;3811;49.006;12.076;2022-10-17T14:06:17;8.30;;;7.53;;
7539;SDS011;3811;49.006;12.076;2022-10-17T14:08:48;9.77;;;7.43;;
7539;SDS011;3811;49.006;12.076;2022-10-17T14:11:18;7.50;;;6.80;;
7539;SDS011;3811;49.006;12.076;2022-10-17T14:13:50;8.03;;;6.70;;
7539;SDS011;3811;49.006;12.076;2022-10-17T14:16:18;7.87;;;7.10;;
7539;SDS011;3811;49.006;12.076;2022-10-17T14:18:48;11.83;;;6.63;;
7539;SDS011;3811;49.006;12.076;2022-10-17T14:21:17;7.77;;;6.97;;
7539;SDS011;3811;49.006;12.076;2022-10-17T14:23:46;10.03;;;7.07;;
7539;SDS011;3811;49.006;12.076;2022-10-17T14:26:14;9.33;;;7.27;;
7539;SDS011;3811;49.006;12.076;2022-10-17T14:28:43;8.07;;;7.27;;
7539;SDS011;3811;49.006;12.076;2022-10-17T14:31:22;7.63;;;6.93;;
7539;SDS011;3811;49.006;12.076;2022-10-17T14:33:55;9.20;;;7.07;;
7539;SDS011;3811;49.006;12.076;2022-10-17T14:36:32;7.90;;;6.93;;
7539;SDS011;3811;49.006;12.076;2022-10-17T14:39:01;10.30;;;6.77;;
7539;SDS011;3811;49.006;12.076;2022-10-17T14:41:29;7.90;;;7.00;;
7539;SDS011;3811;49.006;12.076;2022-10-17T14:44:00;8.57;;;7.35;;
7539;SDS011;3811;49.006;12.076;2022-10-17T14:46:30;8.00;;;7.28;;
7539;SDS011;3811;49.006;12.076;2022-10-17T14:49:03;7.60;;;6.93;;
7539;SDS011;3811;49.006;12.076;2022-10-17T14:51:37;8.93;;;7.53;;
7539;SDS011;3811;49.006;12.076;2022-10-17T14:54:15;8.25;;;7.45;;
7539;SDS011;3811;49.006;12.076;2022-10-17T14:56:53;8.07;;;7.32;;
7539;SDS011;3811;49.006;12.076;2022-10-17T14:59:27;9.95;;;7.28;;
7539;SDS011;3811;49.006;12.076;2022-10-17T15:01:54;8.43;;;7.53;;
7539;SDS011;3811;49.006;12.076;2022-10-17T15:04:22;7.68;;;6.93;;
7539;SDS011;3811;49.006;12.076;2022-10-17T15:06:52;8.40;;;7.57;;
7539;SDS011;3811;49.006;12.076;2022-10-17T15:09:20;12.38;;;7.80;;
7539;SDS011;3811;49.006;12.076;2022-10-17T15:11:56;8.15;;;7.35;;
7539;SDS011;3811;49.006;12.076;2022-10-17T15:14:26;8.87;;;7.23;;
7539;SDS011;3811;49.006;12.076;2022-10-17T15:16:54;10.37;;;7.20;;
7539;SDS011;3811;49.006;12.076;2022-10-17T15:19:22;8.97;;;8.07;;
7539;SDS011;3811;49.006;12.076;2022-10-17T15:24:40;9.20;;;7.20;;
7539;SDS011;3811;49.006;12.076;2022-10-17T15:27:09;8.47;;;7.57;;
7539;SDS011;3811;49.006;12.076;2022-10-17T15:29:40;9.40;;;8.03;;
7539;SDS011;3811;49.006;12.076;2022-10-17T15:32:07;11.87;;;8.10;;
7539;SDS011;3811;49.006;12.076;2022-10-17T15:34:35;9.23;;;7.23;;
7539;SDS011;3811;49.006;12.076;2022-10-17T15:37:04;8.63;;;7.83;;